sensor_id;sensor_type;location;lat;lon;timestamp;temperature;humidity
4749;DHT22;2388;53.582;9.962;2024-02-16T00:00:06;12.00;99.90
4749;DHT22;2388;53.582;9.962;2024-02-16T00:02:31;11.90;99.90
4749;DHT22;2388;53.582;9.962;2024-02-16T00:04:58;11.90;99.90
4749;DHT22;2388;53.582;9.962;2024-02-16T00:07:24;11.90;99.90
4749;DHT22;2388;53.582;9.962;2024-02-16T00:09:49;11.90;99.90
4749;DHT22;2388;53.582;9.962;2024-02-16T00:12:15;11.90;99.90
4749;DHT22;2388;53.582;9.962;2024-02-16T00:14:42;11.90;99.90
4749;DHT22;2388;53.582;9.962;2024-02-16T00:17:07;11.90;99.90
4749;DHT22;2388;53.582;9.962;2024-02-16T00:19:35;11.90;99.90
4749;DHT22;2388;53.582;9.962;2024-02-16T00:22:01;11.90;99.90
4749;DHT22;2388;53.582;9.962;2024-02-16T00:24:26;11.90;99.90
4749;DHT22;2388;53.582;9.962;2024-02-16T00:26:52;11.80;99.90
4749;DHT22;2388;53.582;9.962;2024-02-16T00:29:17;11.80;99.90
4749;DHT22;2388;53.582;9.962;2024-02-16T00:31:42;11.80;99.90
4749;DHT22;2388;53.582;9.962;2024-02-16T00:34:08;11.80;99.90
4749;DHT22;2388;53.582;9.962;2024-02-16T00:36:33;11.80;99.90
4749;DHT22;2388;53.582;9.962;2024-02-16T00:38:59;11.80;99.90
4749;DHT22;2388;53.582;9.962;2024-02-16T00:41:25;11.80;99.90
4749;DHT22;2388;53.582;9.962;2024-02-16T00:43:51;11.80;99.90
4749;DHT22;2388;53.582;9.962;2024-02-16T00:46:19;11.80;99.90
4749;DHT22;2388;53.582;9.962;2024-02-16T00:48:45;11.80;99.90
4749;DHT22;2388;53.582;9.962;2024-02-16T00:51:11;11.80;99.90
4749;DHT22;2388;53.582;9.962;2024-02-16T00:53:37;11.80;99.90
4749;DHT22;2388;53.582;9.962;2024-02-16T00:56:03;11.80;99.90
4749;DHT22;2388;53.582;9.962;2024-02-16T00:58:29;11.80;99.90
4749;DHT22;2388;53.582;9.962;2024-02-16T01:00:54;11.80;99.90
4749;DHT22;2388;53.582;9.962;2024-02-16T01:03:20;11.80;99.90
4749;DHT22;2388;53.582;9.962;2024-02-16T01:05:47;11.70;99.90
4749;DHT22;2388;53.582;9.962;2024-02-16T01:08:13;11.70;99.90
4749;DHT22;2388;53.582;9.962;2024-02-16T01:10:38;11.70;99.90
4749;DHT22;2388;53.582;9.962;2024-02-16T01:13:04;11.70;99.90
4749;DHT22;2388;53.582;9.962;2024-02-16T01:15:30;11.60;99.90
4749;DHT22;2388;53.582;9.962;2024-02-16T01:17:56;11.60;99.90
4749;DHT22;2388;53.582;9.962;2024-02-16T01:20:21;11.60;99.90
4749;DHT22;2388;53.582;9.962;2024-02-16T01:22:47;11.60;99.90
4749;DHT22;2388;53.582;9.962;2024-02-16T01:25:12;11.60;99.90
4749;DHT22;2388;53.582;9.962;2024-02-16T01:27:38;11.60;99.90
4749;DHT22;2388;53.582;9.962;2024-02-16T01:30:06;11.60;99.90
4749;DHT22;2388;53.582;9.962;2024-02-16T01:32:32;11.60;99.90
4749;DHT22;2388;53.582;9.962;2024-02-16T01:34:57;11.60;99.90
4749;DHT22;2388;53.582;9.962;2024-02-16T01:37:23;11.50;99.90
4749;DHT22;2388;53.582;9.962;2024-02-16T01:39:48;11.50;99.90
4749;DHT22;2388;53.582;9.962;2024-02-16T01:42:14;11.50;99.90
4749;DHT22;2388;53.582;9.962;2024-02-16T01:44:39;11.40;99.90
4749;DHT22;2388;53.582;9.962;2024-02-16T01:47:05;11.40;99.90
4749;DHT22;2388;53.582;9.962;2024-02-16T01:49:31;11.40;99.90
4749;DHT22;2388;53.582;9.962;2024-02-16T01:51:57;11.40;99.90
4749;DHT22;2388;53.582;9.962;2024-02-16T01:54:23;11.40;99.90
4749;DHT22;2388;53.582;9.962;2024-02-16T01:56:49;11.40;99.90
4749;DHT22;2388;53.582;9.962;2024-02-16T01:59:16;11.50;99.90
4749;DHT22;2388;53.582;9.962;2024-02-16T02:01:42;11.50;99.90
4749;DHT22;2388;53.582;9.962;2024-02-16T02:04:07;11.40;99.90
4749;DHT22;2388;53.582;9.962;2024-02-16T02:06:33;11.40;99.90
4749;DHT22;2388;53.582;9.962;2024-02-16T02:08:58;11.40;99.90
4749;DHT22;2388;53.582;9.962;2024-02-16T02:11:24;11.40;99.90
4749;DHT22;2388;53.582;9.962;2024-02-16T02:13:49;11.40;99.90
4749;DHT22;2388;53.582;9.962;2024-02-16T02:16:15;11.40;99.90
4749;DHT22;2388;53.582;9.962;2024-02-16T02:18:41;11.40;99.90
4749;DHT22;2388;53.582;9.962;2024-02-16T02:21:08;11.40;99.90
4749;DHT22;2388;53.582;9.962;2024-02-16T02:23:34;11.40;99.90
4749;DHT22;2388;53.582;9.962;2024-02-16T02:25:59;11.40;99.90
4749;DHT22;2388;53.582;9.962;2024-02-16T02:28:25;11.30;99.90
4749;DHT22;2388;53.582;9.962;2024-02-16T02:30:50;11.40;99.90
4749;DHT22;2388;53.582;9.962;2024-02-16T02:33:16;11.40;99.90
4749;DHT22;2388;53.582;9.962;2024-02-16T02:35:42;11.40;99.90
4749;DHT22;2388;53.582;9.962;2024-02-16T02:38:08;11.40;99.90
4749;DHT22;2388;53.582;9.962;2024-02-16T02:40:33;11.40;99.90
4749;DHT22;2388;53.582;9.962;2024-02-16T02:42:59;11.40;99.90
4749;DHT22;2388;53.582;9.962;2024-02-16T02:45:24;11.40;99.90
4749;DHT22;2388;53.582;9.962;2024-02-16T02:47:51;11.40;99.90
4749;DHT22;2388;53.582;9.962;2024-02-16T02:50:17;11.50;99.90
4749;DHT22;2388;53.582;9.962;2024-02-16T02:52:43;11.40;99.90
4749;DHT22;2388;53.582;9.962;2024-02-16T02:55:10;11.40;99.90
4749;DHT22;2388;53.582;9.962;2024-02-16T02:57:36;11.40;99.90
4749;DHT22;2388;53.582;9.962;2024-02-16T03:00:06;11.40;99.90
4749;DHT22;2388;53.582;9.962;2024-02-16T03:02:36;11.40;99.90
4749;DHT22;2388;53.582;9.962;2024-02-16T03:05:03;11.40;99.90
4749;DHT22;2388;53.582;9.962;2024-02-16T03:07:28;11.40;99.90
4749;DHT22;2388;53.582;9.962;2024-02-16T03:09:54;11.40;99.90
4749;DHT22;2388;53.582;9.962;2024-02-16T03:12:19;11.40;99.90
4749;DHT22;2388;53.582;9.962;2024-02-16T03:14:45;11.40;99.90
4749;DHT22;2388;53.582;9.962;2024-02-16T03:17:10;11.40;99.90
4749;DHT22;2388;53.582;9.962;2024-02-16T03:19:36;11.40;99.90
4749;DHT22;2388;53.582;9.962;2024-02-16T03:22:01;11.30;99.90
4749;DHT22;2388;53.582;9.962;2024-02-16T03:24:27;11.40;99.90
4749;DHT22;2388;53.582;9.962;2024-02-16T03:26:53;11.30;99.90
4749;DHT22;2388;53.582;9.962;2024-02-16T03:29:18;11.30;99.90
4749;DHT22;2388;53.582;9.962;2024-02-16T03:31:44;11.30;99.90
4749;DHT22;2388;53.582;9.962;2024-02-16T03:34:09;11.30;99.90
4749;DHT22;2388;53.582;9.962;2024-02-16T03:36:35;11.30;99.90
4749;DHT22;2388;53.582;9.962;2024-02-16T03:39:00;11.30;99.90
4749;DHT22;2388;53.582;9.962;2024-02-16T03:41:26;11.30;99.90
4749;DHT22;2388;53.582;9.962;2024-02-16T03:43:51;11.40;99.90
4749;DHT22;2388;53.582;9.962;2024-02-16T03:46:17;11.30;99.90
4749;DHT22;2388;53.582;9.962;2024-02-16T03:48:43;11.30;99.90
4749;DHT22;2388;53.582;9.962;2024-02-16T03:51:09;11.30;99.90
4749;DHT22;2388;53.582;9.962;2024-02-16T03:53:35;11.30;99.90
4749;DHT22;2388;53.582;9.962;2024-02-16T03:56:01;11.30;99.90
4749;DHT22;2388;53.582;9.962;2024-02-16T03:58:26;11.40;99.90
4749;DHT22;2388;53.582;9.962;2024-02-16T04:00:52;11.40;99.90
4749;DHT22;2388;53.582;9.962;2024-02-16T04:03:20;11.40;99.90
4749;DHT22;2388;53.582;9.962;2024-02-16T04:05:46;11.40;99.90
4749;DHT22;2388;53.582;9.962;2024-02-16T04:08:11;11.40;99.90
4749;DHT22;2388;53.582;9.962;2024-02-16T04:10:37;11.40;99.90
4749;DHT22;2388;53.582;9.962;2024-02-16T04:13:03;11.40;99.90
4749;DHT22;2388;53.582;9.962;2024-02-16T04:15:29;11.40;99.90
4749;DHT22;2388;53.582;9.962;2024-02-16T04:17:54;11.40;99.90
4749;DHT22;2388;53.582;9.962;2024-02-16T04:20:20;11.40;99.90
4749;DHT22;2388;53.582;9.962;2024-02-16T04:22:45;11.40;99.90
4749;DHT22;2388;53.582;9.962;2024-02-16T04:25:11;11.50;99.90
4749;DHT22;2388;53.582;9.962;2024-02-16T04:27:37;11.50;99.90
4749;DHT22;2388;53.582;9.962;2024-02-16T04:30:04;11.40;99.90
4749;DHT22;2388;53.582;9.962;2024-02-16T04:32:30;11.40;99.90
4749;DHT22;2388;53.582;9.962;2024-02-16T04:34:55;11.50;99.90
4749;DHT22;2388;53.582;9.962;2024-02-16T04:37:21;11.50;99.90
4749;DHT22;2388;53.582;9.962;2024-02-16T04:39:47;11.50;99.90
4749;DHT22;2388;53.582;9.962;2024-02-16T04:42:13;11.50;99.90
4749;DHT22;2388;53.582;9.962;2024-02-16T04:44:38;11.50;99.90
4749;DHT22;2388;53.582;9.962;2024-02-16T04:47:05;11.50;99.90
4749;DHT22;2388;53.582;9.962;2024-02-16T04:49:30;11.50;99.90
4749;DHT22;2388;53.582;9.962;2024-02-16T04:51:56;11.50;99.90
4749;DHT22;2388;53.582;9.962;2024-02-16T04:54:21;11.50;99.90
4749;DHT22;2388;53.582;9.962;2024-02-16T04:56:48;11.50;99.90
4749;DHT22;2388;53.582;9.962;2024-02-16T04:59:14;11.50;99.90
4749;DHT22;2388;53.582;9.962;2024-02-16T05:01:40;11.50;99.90
4749;DHT22;2388;53.582;9.962;2024-02-16T05:04:05;11.50;99.90
4749;DHT22;2388;53.582;9.962;2024-02-16T05:06:32;11.50;99.90
4749;DHT22;2388;53.582;9.962;2024-02-16T05:08:57;11.50;99.90
4749;DHT22;2388;53.582;9.962;2024-02-16T05:11:23;11.50;99.90
4749;DHT22;2388;53.582;9.962;2024-02-16T05:13:50;11.50;99.90
4749;DHT22;2388;53.582;9.962;2024-02-16T05:16:15;11.40;99.90
4749;DHT22;2388;53.582;9.962;2024-02-16T05:18:42;11.50;99.90
4749;DHT22;2388;53.582;9.962;2024-02-16T05:21:07;11.50;99.90
4749;DHT22;2388;53.582;9.962;2024-02-16T05:23:33;11.50;99.90
4749;DHT22;2388;53.582;9.962;2024-02-16T05:25:59;11.50;99.90
4749;DHT22;2388;53.582;9.962;2024-02-16T05:28:24;11.40;99.90
4749;DHT22;2388;53.582;9.962;2024-02-16T05:30:49;11.50;99.90
4749;DHT22;2388;53.582;9.962;2024-02-16T05:33:15;11.50;99.90
4749;DHT22;2388;53.582;9.962;2024-02-16T05:35:40;11.50;99.90
4749;DHT22;2388;53.582;9.962;2024-02-16T05:38:06;11.50;99.90
4749;DHT22;2388;53.582;9.962;2024-02-16T05:40:36;11.40;99.90
4749;DHT22;2388;53.582;9.962;2024-02-16T05:43:21;11.40;99.90
4749;DHT22;2388;53.582;9.962;2024-02-16T05:45:48;11.40;99.90
4749;DHT22;2388;53.582;9.962;2024-02-16T05:48:13;11.40;99.90
4749;DHT22;2388;53.582;9.962;2024-02-16T05:50:39;11.40;99.90
4749;DHT22;2388;53.582;9.962;2024-02-16T05:53:04;11.40;99.90
4749;DHT22;2388;53.582;9.962;2024-02-16T05:55:30;11.40;99.90
4749;DHT22;2388;53.582;9.962;2024-02-16T05:57:55;11.40;99.90
4749;DHT22;2388;53.582;9.962;2024-02-16T06:00:21;11.40;99.90
4749;DHT22;2388;53.582;9.962;2024-02-16T06:02:47;11.40;99.90
4749;DHT22;2388;53.582;9.962;2024-02-16T06:05:13;11.40;99.90
4749;DHT22;2388;53.582;9.962;2024-02-16T06:07:38;11.40;99.90
4749;DHT22;2388;53.582;9.962;2024-02-16T06:10:05;11.40;99.90
4749;DHT22;2388;53.582;9.962;2024-02-16T06:12:33;11.40;99.90
4749;DHT22;2388;53.582;9.962;2024-02-16T06:14:59;11.40;99.90
4749;DHT22;2388;53.582;9.962;2024-02-16T06:17:24;11.40;99.90
4749;DHT22;2388;53.582;9.962;2024-02-16T06:19:50;11.30;99.90
4749;DHT22;2388;53.582;9.962;2024-02-16T06:22:16;11.30;99.90
4749;DHT22;2388;53.582;9.962;2024-02-16T06:24:41;11.30;99.90
4749;DHT22;2388;53.582;9.962;2024-02-16T06:27:07;11.30;99.90
4749;DHT22;2388;53.582;9.962;2024-02-16T06:29:35;11.30;99.90
4749;DHT22;2388;53.582;9.962;2024-02-16T06:32:01;11.30;99.90
4749;DHT22;2388;53.582;9.962;2024-02-16T06:34:27;11.20;99.90
4749;DHT22;2388;53.582;9.962;2024-02-16T06:36:53;11.30;99.90
4749;DHT22;2388;53.582;9.962;2024-02-16T06:39:18;11.30;99.90
4749;DHT22;2388;53.582;9.962;2024-02-16T06:41:45;11.20;99.90
4749;DHT22;2388;53.582;9.962;2024-02-16T06:44:15;11.20;99.90
4749;DHT22;2388;53.582;9.962;2024-02-16T06:46:44;11.20;99.90
4749;DHT22;2388;53.582;9.962;2024-02-16T06:49:10;11.20;99.90
4749;DHT22;2388;53.582;9.962;2024-02-16T06:51:36;11.20;99.90
4749;DHT22;2388;53.582;9.962;2024-02-16T06:54:02;11.20;99.90
4749;DHT22;2388;53.582;9.962;2024-02-16T06:56:29;11.20;99.90
4749;DHT22;2388;53.582;9.962;2024-02-16T06:58:56;11.20;99.90
4749;DHT22;2388;53.582;9.962;2024-02-16T07:01:21;11.20;99.90
4749;DHT22;2388;53.582;9.962;2024-02-16T07:03:47;11.10;99.90
4749;DHT22;2388;53.582;9.962;2024-02-16T07:06:13;11.10;99.90
4749;DHT22;2388;53.582;9.962;2024-02-16T07:08:43;11.10;99.90
4749;DHT22;2388;53.582;9.962;2024-02-16T07:11:09;11.10;99.90
4749;DHT22;2388;53.582;9.962;2024-02-16T07:13:39;11.10;99.90
4749;DHT22;2388;53.582;9.962;2024-02-16T07:16:06;11.10;99.90
4749;DHT22;2388;53.582;9.962;2024-02-16T07:18:34;11.10;99.90
4749;DHT22;2388;53.582;9.962;2024-02-16T07:21:00;11.20;99.90
4749;DHT22;2388;53.582;9.962;2024-02-16T07:23:26;11.20;99.90
4749;DHT22;2388;53.582;9.962;2024-02-16T07:25:52;11.20;99.90
4749;DHT22;2388;53.582;9.962;2024-02-16T07:28:22;11.20;99.90
4749;DHT22;2388;53.582;9.962;2024-02-16T07:30:47;11.20;99.90
4749;DHT22;2388;53.582;9.962;2024-02-16T07:33:13;11.30;99.90
4749;DHT22;2388;53.582;9.962;2024-02-16T07:35:38;11.30;99.90
4749;DHT22;2388;53.582;9.962;2024-02-16T07:38:04;11.30;99.90
4749;DHT22;2388;53.582;9.962;2024-02-16T07:40:30;11.30;99.90
4749;DHT22;2388;53.582;9.962;2024-02-16T07:42:56;11.40;99.90
4749;DHT22;2388;53.582;9.962;2024-02-16T07:45:22;11.40;99.90
4749;DHT22;2388;53.582;9.962;2024-02-16T07:47:48;11.40;99.90
4749;DHT22;2388;53.582;9.962;2024-02-16T07:50:13;11.50;99.90
4749;DHT22;2388;53.582;9.962;2024-02-16T07:52:43;11.50;99.90
4749;DHT22;2388;53.582;9.962;2024-02-16T07:55:08;11.50;99.90
4749;DHT22;2388;53.582;9.962;2024-02-16T07:57:34;11.50;99.90
4749;DHT22;2388;53.582;9.962;2024-02-16T08:00:00;11.50;99.90
4749;DHT22;2388;53.582;9.962;2024-02-16T08:02:25;11.50;99.90
4749;DHT22;2388;53.582;9.962;2024-02-16T08:04:52;11.60;99.90
4749;DHT22;2388;53.582;9.962;2024-02-16T08:07:17;11.50;99.90
4749;DHT22;2388;53.582;9.962;2024-02-16T08:09:46;11.60;99.90
4749;DHT22;2388;53.582;9.962;2024-02-16T08:12:12;11.60;99.90
4749;DHT22;2388;53.582;9.962;2024-02-16T08:14:39;11.60;99.90
4749;DHT22;2388;53.582;9.962;2024-02-16T08:17:05;11.70;99.90
4749;DHT22;2388;53.582;9.962;2024-02-16T08:19:36;11.70;99.90
4749;DHT22;2388;53.582;9.962;2024-02-16T08:22:02;11.80;99.90
4749;DHT22;2388;53.582;9.962;2024-02-16T08:24:31;11.80;99.90
4749;DHT22;2388;53.582;9.962;2024-02-16T08:26:57;11.80;99.90
4749;DHT22;2388;53.582;9.962;2024-02-16T08:29:22;11.80;99.90
4749;DHT22;2388;53.582;9.962;2024-02-16T08:31:49;11.80;99.90
4749;DHT22;2388;53.582;9.962;2024-02-16T08:34:16;11.80;99.90
4749;DHT22;2388;53.582;9.962;2024-02-16T08:36:45;11.80;99.90
4749;DHT22;2388;53.582;9.962;2024-02-16T08:39:12;11.80;99.90
4749;DHT22;2388;53.582;9.962;2024-02-16T08:41:38;11.80;99.90
4749;DHT22;2388;53.582;9.962;2024-02-16T08:44:03;11.80;99.90
4749;DHT22;2388;53.582;9.962;2024-02-16T08:46:29;11.80;99.90
4749;DHT22;2388;53.582;9.962;2024-02-16T08:48:55;11.80;99.90
4749;DHT22;2388;53.582;9.962;2024-02-16T08:51:20;11.80;99.90
4749;DHT22;2388;53.582;9.962;2024-02-16T08:53:46;11.80;99.90
4749;DHT22;2388;53.582;9.962;2024-02-16T08:56:12;11.80;99.90
4749;DHT22;2388;53.582;9.962;2024-02-16T08:58:37;11.80;99.90
4749;DHT22;2388;53.582;9.962;2024-02-16T09:01:04;11.80;99.90
4749;DHT22;2388;53.582;9.962;2024-02-16T09:03:29;11.80;99.90
4749;DHT22;2388;53.582;9.962;2024-02-16T09:05:58;11.80;99.90
4749;DHT22;2388;53.582;9.962;2024-02-16T09:08:23;11.80;99.90
4749;DHT22;2388;53.582;9.962;2024-02-16T09:10:50;11.80;99.90
4749;DHT22;2388;53.582;9.962;2024-02-16T09:13:16;11.80;99.90
4749;DHT22;2388;53.582;9.962;2024-02-16T09:15:41;11.80;99.90
4749;DHT22;2388;53.582;9.962;2024-02-16T09:18:07;11.80;99.90
4749;DHT22;2388;53.582;9.962;2024-02-16T09:20:32;11.80;99.90
4749;DHT22;2388;53.582;9.962;2024-02-16T09:22:58;11.80;99.90
4749;DHT22;2388;53.582;9.962;2024-02-16T09:25:23;11.90;99.90
4749;DHT22;2388;53.582;9.962;2024-02-16T09:27:49;11.80;99.90
4749;DHT22;2388;53.582;9.962;2024-02-16T09:30:15;11.90;99.90
4749;DHT22;2388;53.582;9.962;2024-02-16T09:32:41;11.90;99.90
4749;DHT22;2388;53.582;9.962;2024-02-16T09:35:07;11.90;99.90
4749;DHT22;2388;53.582;9.962;2024-02-16T09:37:34;11.90;99.90
4749;DHT22;2388;53.582;9.962;2024-02-16T09:40:00;11.90;99.90
4749;DHT22;2388;53.582;9.962;2024-02-16T09:42:25;12.00;99.90
4749;DHT22;2388;53.582;9.962;2024-02-16T09:44:54;11.90;99.90
4749;DHT22;2388;53.582;9.962;2024-02-16T09:47:21;12.00;99.90
4749;DHT22;2388;53.582;9.962;2024-02-16T09:49:48;12.00;99.90
4749;DHT22;2388;53.582;9.962;2024-02-16T09:52:13;12.00;99.90
4749;DHT22;2388;53.582;9.962;2024-02-16T09:54:40;12.10;99.90
4749;DHT22;2388;53.582;9.962;2024-02-16T09:57:05;12.30;99.90
4749;DHT22;2388;53.582;9.962;2024-02-16T09:59:31;12.50;99.90
4749;DHT22;2388;53.582;9.962;2024-02-16T10:02:04;12.60;99.90
4749;DHT22;2388;53.582;9.962;2024-02-16T10:04:29;12.70;99.90
4749;DHT22;2388;53.582;9.962;2024-02-16T10:06:56;12.80;99.90
4749;DHT22;2388;53.582;9.962;2024-02-16T10:09:27;12.90;99.90
4749;DHT22;2388;53.582;9.962;2024-02-16T10:11:54;12.90;99.90
4749;DHT22;2388;53.582;9.962;2024-02-16T10:14:20;13.00;99.90
4749;DHT22;2388;53.582;9.962;2024-02-16T10:16:59;13.10;99.90
4749;DHT22;2388;53.582;9.962;2024-02-16T10:19:25;13.10;99.90
4749;DHT22;2388;53.582;9.962;2024-02-16T10:21:50;13.20;99.90
4749;DHT22;2388;53.582;9.962;2024-02-16T10:24:21;13.20;99.90
4749;DHT22;2388;53.582;9.962;2024-02-16T10:26:47;13.40;99.90
4749;DHT22;2388;53.582;9.962;2024-02-16T10:29:17;13.50;99.90
4749;DHT22;2388;53.582;9.962;2024-02-16T10:31:45;13.60;99.90
4749;DHT22;2388;53.582;9.962;2024-02-16T10:34:11;13.70;99.90
4749;DHT22;2388;53.582;9.962;2024-02-16T10:36:37;13.70;99.90
4749;DHT22;2388;53.582;9.962;2024-02-16T10:39:04;13.80;99.90
4749;DHT22;2388;53.582;9.962;2024-02-16T10:43:59;13.80;99.90
4749;DHT22;2388;53.582;9.962;2024-02-16T10:46:26;13.80;99.90
4749;DHT22;2388;53.582;9.962;2024-02-16T10:48:51;13.80;99.90
4749;DHT22;2388;53.582;9.962;2024-02-16T10:51:53;13.90;99.90
4749;DHT22;2388;53.582;9.962;2024-02-16T10:54:13;14.00;99.90
4749;DHT22;2388;53.582;9.962;2024-02-16T10:56:41;14.10;99.90
4749;DHT22;2388;53.582;9.962;2024-02-16T10:59:10;14.20;99.90
4749;DHT22;2388;53.582;9.962;2024-02-16T11:01:39;14.20;99.90
4749;DHT22;2388;53.582;9.962;2024-02-16T11:04:11;14.30;99.90
4749;DHT22;2388;53.582;9.962;2024-02-16T11:06:47;14.30;99.90
4749;DHT22;2388;53.582;9.962;2024-02-16T11:09:25;14.30;99.90
4749;DHT22;2388;53.582;9.962;2024-02-16T11:12:12;14.40;99.90
4749;DHT22;2388;53.582;9.962;2024-02-16T11:14:40;14.40;99.90
4749;DHT22;2388;53.582;9.962;2024-02-16T11:17:09;14.40;99.90
4749;DHT22;2388;53.582;9.962;2024-02-16T11:19:35;14.40;99.90
4749;DHT22;2388;53.582;9.962;2024-02-16T11:22:05;14.40;99.90
4749;DHT22;2388;53.582;9.962;2024-02-16T11:24:44;14.30;99.90
4749;DHT22;2388;53.582;9.962;2024-02-16T11:27:11;14.30;99.90
4749;DHT22;2388;53.582;9.962;2024-02-16T11:29:37;14.40;99.90
4749;DHT22;2388;53.582;9.962;2024-02-16T11:32:06;14.30;99.90
4749;DHT22;2388;53.582;9.962;2024-02-16T11:34:33;14.30;99.90
4749;DHT22;2388;53.582;9.962;2024-02-16T11:37:00;14.30;99.90
4749;DHT22;2388;53.582;9.962;2024-02-16T11:39:27;14.30;99.90
4749;DHT22;2388;53.582;9.962;2024-02-16T11:42:10;14.30;99.90
4749;DHT22;2388;53.582;9.962;2024-02-16T11:44:38;14.80;99.90
4749;DHT22;2388;53.582;9.962;2024-02-16T11:47:08;14.30;99.90
4749;DHT22;2388;53.582;9.962;2024-02-16T11:49:42;14.30;99.90
4749;DHT22;2388;53.582;9.962;2024-02-16T11:52:08;14.30;99.90
4749;DHT22;2388;53.582;9.962;2024-02-16T11:54:33;14.30;99.90
4749;DHT22;2388;53.582;9.962;2024-02-16T11:56:59;14.30;99.90
4749;DHT22;2388;53.582;9.962;2024-02-16T11:59:25;14.30;99.90
4749;DHT22;2388;53.582;9.962;2024-02-16T12:01:58;14.40;99.90
4749;DHT22;2388;53.582;9.962;2024-02-16T12:04:26;14.40;99.90
4749;DHT22;2388;53.582;9.962;2024-02-16T12:07:02;14.50;99.90
4749;DHT22;2388;53.582;9.962;2024-02-16T12:09:28;14.50;99.90
4749;DHT22;2388;53.582;9.962;2024-02-16T12:11:54;14.50;99.90
4749;DHT22;2388;53.582;9.962;2024-02-16T12:14:22;14.50;99.90
4749;DHT22;2388;53.582;9.962;2024-02-16T12:16:52;14.50;99.90
4749;DHT22;2388;53.582;9.962;2024-02-16T12:19:21;14.50;99.90
4749;DHT22;2388;53.582;9.962;2024-02-16T12:21:54;14.50;99.90
4749;DHT22;2388;53.582;9.962;2024-02-16T12:24:20;14.60;99.90
4749;DHT22;2388;53.582;9.962;2024-02-16T12:26:46;14.60;99.90
4749;DHT22;2388;53.582;9.962;2024-02-16T12:29:12;14.70;99.90
4749;DHT22;2388;53.582;9.962;2024-02-16T12:31:40;14.70;99.90
4749;DHT22;2388;53.582;9.962;2024-02-16T12:34:06;14.60;99.90
4749;DHT22;2388;53.582;9.962;2024-02-16T12:36:33;14.70;99.90
4749;DHT22;2388;53.582;9.962;2024-02-16T12:39:00;14.70;99.90
4749;DHT22;2388;53.582;9.962;2024-02-16T12:41:25;14.70;99.90
4749;DHT22;2388;53.582;9.962;2024-02-16T12:43:51;14.70;99.90
4749;DHT22;2388;53.582;9.962;2024-02-16T12:46:16;14.70;99.90
4749;DHT22;2388;53.582;9.962;2024-02-16T12:48:42;14.60;99.90
4749;DHT22;2388;53.582;9.962;2024-02-16T12:51:07;14.60;99.90
4749;DHT22;2388;53.582;9.962;2024-02-16T12:53:33;14.70;99.90
4749;DHT22;2388;53.582;9.962;2024-02-16T12:56:09;14.70;99.90
4749;DHT22;2388;53.582;9.962;2024-02-16T12:58:35;14.70;99.90
4749;DHT22;2388;53.582;9.962;2024-02-16T13:01:05;14.60;99.90
4749;DHT22;2388;53.582;9.962;2024-02-16T13:03:34;14.60;99.90
4749;DHT22;2388;53.582;9.962;2024-02-16T13:06:00;14.60;99.90
4749;DHT22;2388;53.582;9.962;2024-02-16T13:08:26;14.60;99.90
4749;DHT22;2388;53.582;9.962;2024-02-16T13:10:52;14.60;99.90
4749;DHT22;2388;53.582;9.962;2024-02-16T13:13:17;14.60;99.90
4749;DHT22;2388;53.582;9.962;2024-02-16T13:15:43;14.60;99.90
4749;DHT22;2388;53.582;9.962;2024-02-16T13:18:08;14.60;99.90
4749;DHT22;2388;53.582;9.962;2024-02-16T13:20:34;14.60;99.90
4749;DHT22;2388;53.582;9.962;2024-02-16T13:23:00;14.60;99.90
4749;DHT22;2388;53.582;9.962;2024-02-16T13:25:26;14.60;99.90
4749;DHT22;2388;53.582;9.962;2024-02-16T13:27:52;14.50;99.90
4749;DHT22;2388;53.582;9.962;2024-02-16T13:30:17;14.50;99.90
4749;DHT22;2388;53.582;9.962;2024-02-16T13:32:43;14.50;99.90
4749;DHT22;2388;53.582;9.962;2024-02-16T13:35:08;14.50;99.90
4749;DHT22;2388;53.582;9.962;2024-02-16T13:37:34;14.50;99.90
4749;DHT22;2388;53.582;9.962;2024-02-16T13:39:59;14.50;99.90
4749;DHT22;2388;53.582;9.962;2024-02-16T13:42:25;14.50;99.90
4749;DHT22;2388;53.582;9.962;2024-02-16T13:44:52;14.50;99.90
4749;DHT22;2388;53.582;9.962;2024-02-16T13:47:18;14.50;99.90
4749;DHT22;2388;53.582;9.962;2024-02-16T13:49:44;14.50;99.90
4749;DHT22;2388;53.582;9.962;2024-02-16T13:52:09;14.40;99.90
4749;DHT22;2388;53.582;9.962;2024-02-16T13:54:36;14.40;99.90
4749;DHT22;2388;53.582;9.962;2024-02-16T13:57:01;14.40;99.90
4749;DHT22;2388;53.582;9.962;2024-02-16T13:59:27;14.40;99.90
4749;DHT22;2388;53.582;9.962;2024-02-16T14:01:53;14.40;99.90
4749;DHT22;2388;53.582;9.962;2024-02-16T14:04:18;14.40;99.90
4749;DHT22;2388;53.582;9.962;2024-02-16T14:06:45;14.40;99.90
4749;DHT22;2388;53.582;9.962;2024-02-16T14:09:10;14.40;99.90
4749;DHT22;2388;53.582;9.962;2024-02-16T14:11:39;14.40;99.90
4749;DHT22;2388;53.582;9.962;2024-02-16T14:14:07;14.40;99.90
4749;DHT22;2388;53.582;9.962;2024-02-16T14:16:32;14.40;99.90
4749;DHT22;2388;53.582;9.962;2024-02-16T14:18:58;14.40;99.90
4749;DHT22;2388;53.582;9.962;2024-02-16T14:21:24;14.40;99.90
4749;DHT22;2388;53.582;9.962;2024-02-16T14:23:49;14.40;99.90
4749;DHT22;2388;53.582;9.962;2024-02-16T14:26:14;14.40;99.90
4749;DHT22;2388;53.582;9.962;2024-02-16T14:28:40;14.40;99.90
4749;DHT22;2388;53.582;9.962;2024-02-16T14:31:06;14.40;99.90
4749;DHT22;2388;53.582;9.962;2024-02-16T14:33:32;14.40;99.90
4749;DHT22;2388;53.582;9.962;2024-02-16T14:35:57;14.30;99.90
4749;DHT22;2388;53.582;9.962;2024-02-16T14:38:23;14.30;99.90
4749;DHT22;2388;53.582;9.962;2024-02-16T14:40:49;14.30;99.90
4749;DHT22;2388;53.582;9.962;2024-02-16T14:43:14;14.20;99.90
4749;DHT22;2388;53.582;9.962;2024-02-16T14:45:40;14.20;99.90
4749;DHT22;2388;53.582;9.962;2024-02-16T14:48:05;14.20;99.90
4749;DHT22;2388;53.582;9.962;2024-02-16T14:50:31;14.20;99.90
4749;DHT22;2388;53.582;9.962;2024-02-16T14:52:56;14.10;99.90
4749;DHT22;2388;53.582;9.962;2024-02-16T14:55:22;14.10;99.90
4749;DHT22;2388;53.582;9.962;2024-02-16T14:57:47;14.00;99.90
4749;DHT22;2388;53.582;9.962;2024-02-16T15:00:13;14.00;99.90
4749;DHT22;2388;53.582;9.962;2024-02-16T15:02:40;14.00;99.90
4749;DHT22;2388;53.582;9.962;2024-02-16T15:05:08;13.90;99.90
4749;DHT22;2388;53.582;9.962;2024-02-16T15:07:34;13.80;99.90
4749;DHT22;2388;53.582;9.962;2024-02-16T15:10:00;13.80;99.90
4749;DHT22;2388;53.582;9.962;2024-02-16T15:12:26;13.80;99.90
4749;DHT22;2388;53.582;9.962;2024-02-16T15:14:52;13.70;99.90
4749;DHT22;2388;53.582;9.962;2024-02-16T15:17:18;13.70;99.90
4749;DHT22;2388;53.582;9.962;2024-02-16T15:19:44;13.60;99.90
4749;DHT22;2388;53.582;9.962;2024-02-16T15:22:10;13.50;99.90
4749;DHT22;2388;53.582;9.962;2024-02-16T15:24:35;13.50;99.90
4749;DHT22;2388;53.582;9.962;2024-02-16T15:27:01;13.50;99.90
4749;DHT22;2388;53.582;9.962;2024-02-16T15:29:27;13.50;99.90
4749;DHT22;2388;53.582;9.962;2024-02-16T15:31:52;13.40;99.90
4749;DHT22;2388;53.582;9.962;2024-02-16T15:34:18;13.40;99.90
4749;DHT22;2388;53.582;9.962;2024-02-16T15:36:44;13.40;99.90
4749;DHT22;2388;53.582;9.962;2024-02-16T15:39:09;13.40;99.90
4749;DHT22;2388;53.582;9.962;2024-02-16T15:41:36;13.30;99.90
4749;DHT22;2388;53.582;9.962;2024-02-16T15:44:01;13.30;99.90
4749;DHT22;2388;53.582;9.962;2024-02-16T15:46:27;13.30;99.90
4749;DHT22;2388;53.582;9.962;2024-02-16T15:48:53;13.20;99.90
4749;DHT22;2388;53.582;9.962;2024-02-16T15:51:19;13.20;99.90
4749;DHT22;2388;53.582;9.962;2024-02-16T15:53:44;13.20;99.90
4749;DHT22;2388;53.582;9.962;2024-02-16T15:56:10;13.20;99.90
4749;DHT22;2388;53.582;9.962;2024-02-16T15:58:35;13.20;99.90